• Join FlightAware (Why Join?)
  • Login
  • US Flag 
10:19PM EST


 

Airport Tracker/Info


-or-


 

Live Flight TrackerFlight Track Log ✈ QXE2340 ✈ 29-Oct-2013 ✈ KSEA - KMSO

Flight Track Log - Related Links

Times and Time Zones

All times are in EDT time to prevent confusion due to time zone crossing. See the QXE2340 flight status page for this flight to view local times or setup timezone preferences in your user account.

Time Position Orientation Groundspeed Altitude Reporting Facility
EDT Latitude Longitude Course Direction KTS MPH feet Rate Location/Type
12:52AM 47.4264 -121.5754 95° East  Level Estimated
12:53AM 47.4232 -121.4526 92° East  Level FlightAware Approximate
12:54AM 47.4187 -121.3300 90° East  Level Estimated
12:55AM 47.4166 -121.2072 91° East  Level FlightAware Approximate
12:56AM 47.4118 -121.0846 90° East  Level Estimated
12:57AM 47.4068 -120.9620 98° East  Level Estimated
12:58AM 47.4017 -120.8395 92° East  Level Estimated
12:59AM 47.3994 -120.7167 92° East  Level FlightAware Approximate
01:00AM 47.3870 -120.5963 99° East  Level FlightAware Approximate
01:01AM 47.3746 -120.4759 99° East  Level FlightAware Approximate
01:02AM 47.3692 -120.3544 90° East  Level Estimated
01:03AM 47.3638 -120.2330 98° East  Level Estimated
01:04AM 47.3582 -120.1115 92° East  Level Estimated
01:05AM 47.3532 -119.9901 93° East  Level FlightAware Approximate
01:06AM 47.3481 -119.8686 94° East  Level FlightAware Approximate
01:07AM 47.3428 -119.7471 94° East  Level FlightAware Approximate
01:08AM 47.3375 -119.6257 94° East  Level FlightAware Approximate
01:09AM 47.3312 -119.5044 94° East  Level Estimated
01:10AM 47.3249 -119.3831 94° East  Level FlightAware Approximate
01:11AM 47.3184 -119.2619 94° East  Level FlightAware Approximate
01:12AM 47.3118 -119.1406 95° East  Level FlightAware Approximate
01:13AM 47.3051 -119.0194 95° East  Level FlightAware Approximate
01:14AM 47.2983 -118.8983 95° East  Level FlightAware Approximate
01:15AM 47.2916 -118.7822 95° East  Level FlightAware Approximate
01:16AM 47.2848 -118.6661 95° East  Level FlightAware Approximate
01:17AM 47.2774 -118.5419 95° East  Level FlightAware Approximate
01:18AM 47.2699 -118.4178 95° East  Level FlightAware Approximate
01:19AM 47.2622 -118.2937 95° East  Level FlightAware Approximate
01:20AM 47.2544 -118.1696 95° East  Level FlightAware Approximate
01:21AM 47.2461 -118.0457 96° East  Level FlightAware Approximate
01:22AM 47.2370 -117.9218 96° East  Level FlightAware Approximate
01:23AM 47.2277 -117.7965 96° East  Level FlightAware Approximate
01:24AM 47.2183 -117.6712 96° East  Level FlightAware Approximate
01:25AM 47.2087 -117.5460 96° East  Level FlightAware Approximate
01:26AM 47.1990 -117.4208 96° East  Level FlightAware Approximate
01:27AM 47.1892 -117.2957 97° East  Level FlightAware Approximate
01:28AM 47.1792 -117.1706 97° East  Level FlightAware Approximate
01:29AM 47.1691 -117.0455 97° East  Level FlightAware Approximate
01:30AM 47.1589 -116.9205 97° East  Level FlightAware Approximate
01:31AM 47.1485 -116.7956 97° East  Level FlightAware Approximate
01:32AM 47.1380 -116.6707 97° East  Level FlightAware Approximate
01:33AM 47.1273 -116.5459 97° East  Level FlightAware Approximate
01:34AM 47.1176 -116.4232 97° East  Level FlightAware Approximate
01:35AM 47.1076 -116.2978 97° East  Level FlightAware Approximate
01:36AM 47.0975 -116.1725 97° East  Level FlightAware Approximate
01:37AM 47.0872 -116.0471 97° East  Level FlightAware Approximate
01:38AM 47.0768 -115.9219 97° East  Level FlightAware Approximate
01:39AM 47.0662 -115.7967 97° East  Level FlightAware Approximate
01:40AM 47.0556 -115.6722 97° East  Level FlightAware Approximate
01:41AM 47.0448 -115.5478 97° East  Level FlightAware Approximate
01:42AM 47.0339 -115.4234 97° East  Level FlightAware Approximate
01:43AM 47.0236 -115.2990 97° East  Level FlightAware Approximate
01:44AM 47.0120 -115.1748 99° East  Level FlightAware Approximate
01:45AM 47.0000 -115.0509 90° East  Level FlightAware Approximate
01:46AM 46.9908 -114.9264 100° East  Level FlightAware Approximate
01:47AM 46.9818 -114.8019 99° East  Level FlightAware Approximate
01:48AM 46.9688 -114.6777 99° East  Level FlightAware Approximate
01:49AM 46.9557 -114.5536 99° East  Level FlightAware Approximate
01:50AM 46.9436 -114.4293 98° East  Level FlightAware Approximate
01:51AM 46.9333 -114.3047 90° East  Level FlightAware Approximate
01:52AM 46.9234 -114.1806 102° East  Level FlightAware Approximate
01:53AM 46.9163 -114.0906 116° Southeast  Level Estimated
01:54AM 46.9163 -114.0906 116° Southeast  Level Estimated
01:55AM 46.9163 -114.0906 116° Southeast  Level Estimated
01:56AM 46.9163 -114.0906 116° Southeast  Level Estimated
01:57AM 46.9163 -114.0906 116° Southeast  Level Estimated
01:58AM 46.9163 -114.0906 116° Southeast  Level Estimated